createdAt,value
2022-11-15T00:00:45.525Z,99053.11
2022-11-15T00:05:48.953Z,99050.00
2022-11-15T00:10:52.362Z,99044.95
2022-11-15T00:15:55.887Z,99043.90
2022-11-15T00:20:59.326Z,99038.88
2022-11-15T00:26:02.728Z,99037.48
2022-11-15T00:31:06.139Z,99031.36
2022-11-15T00:36:10.252Z,99030.52
2022-11-15T00:41:13.680Z,99018.23
2022-11-15T00:46:17.094Z,99016.02
2022-11-15T00:51:20.502Z,99011.06
2022-11-15T00:56:23.909Z,99000.92
2022-11-15T01:01:27.348Z,98997.02
2022-11-15T01:06:31.996Z,98991.11
2022-11-15T01:11:35.498Z,98986.41
2022-11-15T01:16:38.893Z,98984.89
2022-11-15T01:21:42.571Z,98978.24
2022-11-15T01:26:45.966Z,98980.30
2022-11-15T01:31:49.381Z,98977.64
2022-11-15T01:36:52.800Z,98970.69
2022-11-15T01:41:56.236Z,98963.63
2022-11-15T01:46:59.646Z,98957.13
2022-11-15T01:52:03.138Z,98951.23
2022-11-15T01:57:06.610Z,98947.69
2022-11-15T02:02:10.053Z,98934.70
2022-11-15T02:07:13.521Z,98931.41
2022-11-15T02:12:17.052Z,98924.92
2022-11-15T02:17:20.458Z,98916.20
2022-11-15T02:22:23.852Z,98909.50
2022-11-15T02:27:27.262Z,98902.34
2022-11-15T02:32:30.733Z,98905.15
2022-11-15T02:37:34.134Z,98903.19
2022-11-15T02:42:55.340Z,98903.08
2022-11-15T02:47:58.885Z,98903.37
2022-11-15T02:53:02.312Z,98893.64
2022-11-15T02:58:05.722Z,98887.06
2022-11-15T03:03:09.111Z,98878.10
2022-11-15T03:08:12.651Z,98874.77
2022-11-15T03:13:16.112Z,98872.55
2022-11-15T03:18:19.541Z,98869.78
2022-11-15T03:23:22.997Z,98870.00
2022-11-15T03:28:26.412Z,98863.88
2022-11-15T03:33:30.180Z,98861.73
2022-11-15T03:38:34.117Z,98853.10
2022-11-15T03:43:37.702Z,98846.83
2022-11-15T03:48:41.102Z,98838.73
2022-11-15T03:53:44.533Z,98831.23
2022-11-15T03:58:48.044Z,98826.05
2022-11-15T04:03:51.522Z,98818.44
2022-11-15T04:08:54.933Z,98816.39
2022-11-15T04:13:58.344Z,98811.02
2022-11-15T04:19:19.484Z,98806.56
2022-11-15T04:24:22.902Z,98807.81
2022-11-15T04:29:38.768Z,98801.79
2022-11-15T04:34:42.160Z,98790.77
2022-11-15T04:39:45.700Z,98786.21
2022-11-15T04:44:49.100Z,98782.05
2022-11-15T04:49:52.593Z,98781.39
2022-11-15T04:54:56.000Z,98781.27
2022-11-15T04:59:59.444Z,98772.86
2022-11-15T05:05:02.889Z,98765.46
2022-11-15T05:10:06.290Z,98761.84
2022-11-15T05:15:09.753Z,98759.86
2022-11-15T05:20:13.156Z,98757.58
2022-11-15T05:25:16.633Z,98757.50
2022-11-15T05:30:20.186Z,98753.70
2022-11-15T05:35:23.588Z,98746.71
2022-11-15T05:40:27.096Z,98740.98
2022-11-15T05:45:30.615Z,98736.85
2022-11-15T05:50:34.029Z,98729.71
2022-11-15T05:55:37.460Z,98723.80
2022-11-15T06:00:40.920Z,98725.94
2022-11-15T06:05:44.474Z,98727.35
2022-11-15T06:10:47.868Z,98732.13
2022-11-15T06:15:51.276Z,98729.72
2022-11-15T06:20:54.679Z,98733.23
2022-11-15T06:25:58.112Z,98731.55
2022-11-15T06:31:01.668Z,98739.93
2022-11-15T06:36:05.094Z,98738.63
2022-11-15T06:41:08.530Z,98744.73
2022-11-15T06:46:11.953Z,98750.12
2022-11-15T06:51:15.470Z,98748.93
2022-11-15T06:56:19.019Z,98751.70
2022-11-15T07:01:23.339Z,98754.30
2022-11-15T07:06:26.855Z,98757.55
2022-11-15T07:11:30.290Z,98752.44
2022-11-15T07:16:35.712Z,98748.92
2022-11-15T07:21:39.194Z,98751.18
2022-11-15T07:26:42.625Z,98751.48
2022-11-15T07:31:46.283Z,98744.80
2022-11-15T07:36:49.680Z,98742.43
2022-11-15T07:42:13.509Z,98737.20
2022-11-15T07:47:17.054Z,98744.20
2022-11-15T07:52:20.469Z,98740.34
2022-11-15T07:57:23.964Z,98741.63
2022-11-15T08:02:30.446Z,98739.33
2022-11-15T08:07:34.310Z,98727.82
2022-11-15T08:12:37.782Z,98726.92
2022-11-15T08:17:41.266Z,98723.27
2022-11-15T08:22:44.661Z,98726.37
2022-11-15T08:27:48.079Z,98722.29
2022-11-15T08:32:51.496Z,98723.98
2022-11-15T08:37:55.605Z,98716.68
2022-11-15T08:42:59.740Z,98713.80
2022-11-15T08:48:03.168Z,98708.10
2022-11-15T08:53:06.604Z,98712.23
2022-11-15T08:58:10.085Z,98710.65
2022-11-15T09:03:13.609Z,98705.13
2022-11-15T09:08:46.180Z,98701.16
2022-11-15T09:13:40.387Z,98696.16
2022-11-15T09:18:43.816Z,98696.41
2022-11-15T09:23:47.227Z,98690.20
2022-11-15T09:28:50.645Z,98688.86
2022-11-15T09:33:54.063Z,98683.73
2022-11-15T09:38:57.465Z,98668.30
2022-11-15T09:44:00.869Z,98654.55
2022-11-15T09:49:04.287Z,98648.73
2022-11-15T09:59:32.535Z,98629.39
2022-11-15T10:04:35.960Z,98618.94
2022-11-15T10:09:39.382Z,98607.16
2022-11-15T10:14:42.872Z,98600.73
2022-11-15T10:19:47.301Z,98596.56
2022-11-15T10:24:50.773Z,98596.34
2022-11-15T10:29:54.189Z,98598.41
2022-11-15T10:34:57.702Z,98595.47
2022-11-15T10:40:01.141Z,98586.27
2022-11-15T10:45:05.111Z,98584.44
2022-11-15T10:50:08.634Z,98575.55
2022-11-15T10:55:12.082Z,98571.34
2022-11-15T11:00:15.518Z,98563.64
2022-11-15T11:05:18.921Z,98559.30
2022-11-15T11:10:49.956Z,98560.81
2022-11-15T11:15:45.746Z,98558.23
2022-11-15T11:20:49.162Z,98551.75
2022-11-15T11:25:52.593Z,98543.91
2022-11-15T11:30:55.997Z,98542.66
2022-11-15T11:35:59.407Z,98532.35
2022-11-15T11:41:03.274Z,98524.05
2022-11-15T11:46:06.771Z,98515.92
2022-11-15T11:51:10.198Z,98510.13
2022-11-15T11:56:13.696Z,98504.84
2022-11-15T12:01:17.365Z,98496.66
2022-11-15T12:06:20.885Z,98487.06
2022-11-15T12:11:24.304Z,98483.27
2022-11-15T12:16:27.895Z,98483.27
2022-11-15T12:21:33.329Z,98476.23
2022-11-15T12:26:36.761Z,98469.42
2022-11-15T12:31:40.188Z,98453.81
2022-11-15T12:36:43.828Z,98453.75
2022-11-15T12:41:47.240Z,98444.39
2022-11-15T12:46:50.725Z,98442.38
2022-11-15T12:51:54.368Z,98433.61
2022-11-15T12:56:57.794Z,98432.87
2022-11-15T13:02:01.226Z,98430.91
2022-11-15T13:07:05.113Z,98424.91
2022-11-15T13:12:08.721Z,98415.14
2022-11-15T13:17:12.165Z,98412.89
2022-11-15T13:22:33.449Z,98403.80
2022-11-15T13:27:36.869Z,98400.31
2022-11-15T13:32:40.740Z,98396.34
2022-11-15T13:37:44.274Z,98390.95
2022-11-15T13:42:47.707Z,98393.30
2022-11-15T13:47:51.218Z,98384.33
2022-11-15T13:52:54.668Z,98381.93
2022-11-15T13:57:58.469Z,98373.20
2022-11-15T14:08:22.952Z,98368.73
2022-11-15T14:13:26.429Z,98371.31
2022-11-15T14:18:30.080Z,98368.14
2022-11-15T14:23:33.840Z,98363.24
2022-11-15T14:28:40.126Z,98352.65
2022-11-15T14:33:43.550Z,98348.81
2022-11-15T14:38:47.001Z,98352.02
2022-11-15T14:43:50.437Z,98344.10
2022-11-15T14:48:53.854Z,98340.08
2022-11-15T14:53:57.308Z,98340.09
2022-11-15T14:59:01.182Z,98327.60
2022-11-15T15:04:04.610Z,98325.96
2022-11-15T15:09:08.014Z,98321.63
2022-11-15T15:14:11.413Z,98313.24
2022-11-15T15:19:15.153Z,98310.64
2022-11-15T15:24:18.583Z,98310.36
2022-11-15T15:29:21.984Z,98306.31
2022-11-15T15:34:25.422Z,98302.77
2022-11-15T15:39:28.825Z,98302.59
2022-11-15T15:44:32.305Z,98300.06
2022-11-15T15:49:35.719Z,98298.94
2022-11-15T15:54:39.120Z,98296.19
2022-11-15T15:59:43.075Z,98290.09
2022-11-15T16:04:46.460Z,98287.91
2022-11-15T16:10:02.300Z,98287.73
2022-11-15T16:15:05.847Z,98293.39
2022-11-15T16:20:09.275Z,98292.92
2022-11-15T16:25:12.673Z,98291.74
2022-11-15T16:30:16.109Z,98290.67
2022-11-15T16:35:20.831Z,98296.18
2022-11-15T16:40:24.305Z,98294.92
2022-11-15T16:45:29.316Z,98290.75
2022-11-15T16:50:35.095Z,98289.00
2022-11-15T16:55:38.523Z,98284.15
2022-11-15T17:00:41.958Z,98279.91
2022-11-15T17:05:45.466Z,98273.30
2022-11-15T17:10:48.884Z,98278.61
2022-11-15T17:15:52.292Z,98267.33
2022-11-15T17:20:55.708Z,98262.61
2022-11-15T17:26:12.077Z,98261.10
2022-11-15T17:31:22.507Z,98257.27
2022-11-15T17:36:25.991Z,98254.38
2022-11-15T17:41:29.395Z,98252.50
2022-11-15T17:46:33.576Z,98245.64
2022-11-15T17:51:36.971Z,98240.77
2022-11-15T17:56:40.402Z,98228.27
2022-11-15T18:01:43.826Z,98226.34
2022-11-15T18:06:47.322Z,98218.79
2022-11-15T18:11:51.866Z,98206.39
2022-11-15T18:16:55.285Z,98195.73
2022-11-15T18:21:58.958Z,98189.95
2022-11-15T18:27:02.390Z,98192.05
2022-11-15T18:32:11.422Z,98183.89
2022-11-15T18:37:14.911Z,98185.92
2022-11-15T18:42:18.316Z,98189.56
2022-11-15T18:47:21.728Z,98185.06
2022-11-15T18:52:25.194Z,98193.02
2022-11-15T18:57:28.710Z,98190.40
2022-11-15T19:02:32.133Z,98194.75
2022-11-15T19:07:37.213Z,98194.55
2022-11-15T19:12:40.724Z,98184.17
2022-11-15T19:17:44.191Z,98185.02
2022-11-15T19:22:47.630Z,98180.90
2022-11-15T19:27:51.153Z,98183.11
2022-11-15T19:32:54.579Z,98175.79
2022-11-15T19:37:57.967Z,98180.95
2022-11-15T19:43:01.385Z,98175.17
2022-11-15T19:48:04.819Z,98174.11
2022-11-15T19:53:08.250Z,98169.23
2022-11-15T19:58:11.723Z,98163.52
2022-11-15T20:03:15.137Z,98160.06
2022-11-15T20:08:18.600Z,98150.35
2022-11-15T20:13:22.040Z,98143.02
2022-11-15T20:18:25.445Z,98139.17
2022-11-15T20:23:28.956Z,98137.09
2022-11-15T20:28:32.711Z,98132.80
2022-11-15T20:33:39.174Z,98135.77
2022-11-15T20:38:43.383Z,98133.61
2022-11-15T20:43:47.089Z,98134.53
2022-11-15T20:48:50.502Z,98132.02
2022-11-15T20:53:53.896Z,98122.75
2022-11-15T20:58:57.731Z,98118.92
2022-11-15T21:04:01.148Z,98118.59
2022-11-15T21:09:22.180Z,98112.70
2022-11-15T21:14:25.608Z,98106.84
2022-11-15T21:19:35.570Z,98101.57
2022-11-15T21:24:40.221Z,98090.58
2022-11-15T21:29:45.726Z,98086.11
2022-11-15T21:34:49.212Z,98083.14
2022-11-15T21:39:52.606Z,98078.27
2022-11-15T21:44:56.026Z,98084.73
2022-11-15T21:49:59.481Z,98084.89
2022-11-15T21:55:02.888Z,98078.67
2022-11-15T22:00:24.063Z,98070.18
2022-11-15T22:10:48.826Z,98057.38
2022-11-15T22:15:53.666Z,98055.44
2022-11-15T22:20:57.409Z,98041.89
2022-11-15T22:26:01.023Z,98027.55
2022-11-15T22:31:04.653Z,98028.64
2022-11-15T22:36:08.263Z,98023.91
2022-11-15T22:41:11.898Z,98017.31
2022-11-15T22:46:15.517Z,98009.97
2022-11-15T22:51:19.130Z,98007.79
2022-11-15T22:56:22.674Z,97995.20
2022-11-15T23:01:26.166Z,97990.60
2022-11-15T23:06:29.671Z,97988.38
2022-11-15T23:11:50.827Z,97976.30
2022-11-15T23:16:54.446Z,97969.13
2022-11-15T23:22:15.871Z,97961.89
2022-11-15T23:27:20.755Z,97964.85
2022-11-15T23:32:38.108Z,97971.35
2022-11-15T23:37:41.611Z,97971.27
2022-11-15T23:42:45.222Z,97966.80
2022-11-15T23:47:48.853Z,97956.05
2022-11-15T23:52:52.722Z,97943.77
2022-11-15T23:57:56.351Z,97934.54
